OAL114 LGAV-LIPK
Flight info
| Callsign | OAL114 |
|---|---|
| Flight time | 2h 0m |
| Altitude | 34000 |
| Route | KOR UL53 KRK UL995 TIGRA KAPPO PIKEL RUPAX ANC ASDOR |
| Aircraft | B738/M-VGDW/C |
Departure
| Time | 2026-05-05 07:39 |
|---|---|
| Airport | Athens Eleftherios Venizelos International Airport (LGAV) |
Arrival
| Time | 2026-05-05 09:40 |
|---|---|
| Airport | Forlì-Luigi Ridolfi International Airport (LIPK) |
| Time | Latitude | Longitude | Altitude | Speed | Heading |
|---|---|---|---|---|---|
| 2026-05-05 07:27 | 37.93834 | 23.95061 | 316 ft | 0 kts | 308° |
| 2026-05-05 07:28 | 37.93834 | 23.95062 | 316 ft | 1 kts | 308° |
| 2026-05-05 07:28 | 37.93825 | 23.95076 | 316 ft | 3 kts | 308° |
| 2026-05-05 07:28 | 37.93813 | 23.95095 | 316 ft | 3 kts | 308° |
| 2026-05-05 07:28 | 37.93801 | 23.95115 | 316 ft | 3 kts | 308° |
| 2026-05-05 07:29 | 37.93789 | 23.95136 | 316 ft | 3 kts | 308° |
| 2026-05-05 07:29 | 37.93785 | 23.95141 | 316 ft | 2 kts | 307° |
| 2026-05-05 07:29 | 37.93778 | 23.95154 | 316 ft | 0 kts | 307° |
| 2026-05-05 07:29 | 37.93778 | 23.95153 | 316 ft | 1 kts | 307° |
| 2026-05-05 07:30 | 37.93776 | 23.95136 | 316 ft | 3 kts | 224° |
| 2026-05-05 07:30 | 37.93755 | 23.95118 | 316 ft | 0 kts | 215° |
| 2026-05-05 07:31 | 37.93737 | 23.95110 | 316 ft | 6 kts | 182° |
| 2026-05-05 07:31 | 37.93695 | 23.95148 | 316 ft | 8 kts | 126° |
| 2026-05-05 07:32 | 37.93662 | 23.95207 | 316 ft | 8 kts | 132° |
| 2026-05-05 07:32 | 37.93613 | 23.95232 | 316 ft | 8 kts | 184° |
| 2026-05-05 07:32 | 37.93568 | 23.95203 | 316 ft | 7 kts | 215° |
| 2026-05-05 07:32 | 37.93527 | 23.95167 | 316 ft | 7 kts | 216° |
| 2026-05-05 07:33 | 37.93478 | 23.95121 | 316 ft | 11 kts | 217° |
| 2026-05-05 07:33 | 37.93411 | 23.95057 | 316 ft | 14 kts | 217° |
| 2026-05-05 07:33 | 37.93328 | 23.94977 | 316 ft | 16 kts | 217° |
| 2026-05-05 07:33 | 37.93238 | 23.94890 | 316 ft | 17 kts | 217° |
| 2026-05-05 07:34 | 37.93142 | 23.94797 | 316 ft | 18 kts | 217° |
| 2026-05-05 07:34 | 37.93046 | 23.94707 | 316 ft | 17 kts | 216° |
| 2026-05-05 07:34 | 37.92953 | 23.94619 | 316 ft | 16 kts | 217° |
| 2026-05-05 07:34 | 37.92866 | 23.94537 | 316 ft | 15 kts | 217° |
| 2026-05-05 07:35 | 37.92785 | 23.94460 | 316 ft | 14 kts | 217° |
| 2026-05-05 07:35 | 37.92710 | 23.94389 | 316 ft | 13 kts | 217° |
| 2026-05-05 07:35 | 37.92638 | 23.94321 | 316 ft | 13 kts | 217° |
| 2026-05-05 07:35 | 37.92574 | 23.94283 | 316 ft | 9 kts | 169° |
| 2026-05-05 07:36 | 37.92540 | 23.94319 | 316 ft | 5 kts | 126° |
| 2026-05-05 07:36 | 37.92531 | 23.94335 | 316 ft | 1 kts | 127° |
| 2026-05-05 07:37 | 37.92530 | 23.94337 | 316 ft | 2 kts | 127° |
| 2026-05-05 07:38 | 37.92510 | 23.94369 | 316 ft | 6 kts | 127° |
| 2026-05-05 07:38 | 37.92490 | 23.94416 | 316 ft | 6 kts | 100° |
| 2026-05-05 07:38 | 37.92502 | 23.94465 | 316 ft | 6 kts | 47° |
| 2026-05-05 07:38 | 37.92542 | 23.94506 | 316 ft | 14 kts | 37° |
| 2026-05-05 07:39 | 37.92753 | 23.94707 | 316 ft | 69 kts | 36° |
| 2026-05-05 07:39 | 37.93302 | 23.95229 | 316 ft | 127 kts | 37° |
| 2026-05-05 07:39 | 37.94140 | 23.96032 | 399 ft | 168 kts | 38° |
| 2026-05-05 07:39 | 37.95049 | 23.96953 | 1065 ft | 166 kts | 38° |
| 2026-05-05 07:40 | 37.95966 | 23.97842 | 1706 ft | 166 kts | 37° |
| 2026-05-05 07:40 | 37.96919 | 23.98740 | 2134 ft | 177 kts | 36° |
| 2026-05-05 07:40 | 37.97974 | 23.99730 | 2412 ft | 200 kts | 36° |
| 2026-05-05 07:40 | 37.99157 | 24.00851 | 2665 ft | 222 kts | 36° |
| 2026-05-05 07:41 | 38.00455 | 24.02090 | 2901 ft | 245 kts | 36° |
| 2026-05-05 07:41 | 38.01844 | 24.03422 | 3510 ft | 251 kts | 36° |
| 2026-05-05 07:41 | 38.03225 | 24.04750 | 4372 ft | 249 kts | 36° |
| 2026-05-05 07:41 | 38.04602 | 24.06075 | 5190 ft | 248 kts | 35° |
| 2026-05-05 07:42 | 38.05957 | 24.07379 | 5966 ft | 248 kts | 35° |
| 2026-05-05 07:42 | 38.07337 | 24.08710 | 6737 ft | 248 kts | 35° |
| 2026-05-05 07:42 | 38.08661 | 24.10140 | 7402 ft | 256 kts | 47° |
| 2026-05-05 07:42 | 38.09515 | 24.12188 | 7901 ft | 272 kts | 72° |
| 2026-05-05 07:43 | 38.09595 | 24.14623 | 8554 ft | 284 kts | 96° |
| 2026-05-05 07:43 | 38.08854 | 24.16988 | 9232 ft | 295 kts | 120° |
| 2026-05-05 07:43 | 38.07395 | 24.18871 | 9857 ft | 307 kts | 143° |
| 2026-05-05 07:43 | 38.05440 | 24.19930 | 10444 ft | 316 kts | 168° |
| 2026-05-05 07:44 | 38.03226 | 24.19788 | 10914 ft | 326 kts | 197° |
| 2026-05-05 07:44 | 38.01216 | 24.18388 | 11178 ft | 337 kts | 224° |
| 2026-05-05 07:44 | 37.99850 | 24.15959 | 11419 ft | 345 kts | 251° |
| 2026-05-05 07:44 | 37.99216 | 24.12994 | 11689 ft | 356 kts | 259° |
| 2026-05-05 07:45 | 37.98428 | 24.09911 | 11956 ft | 375 kts | 252° |
| 2026-05-05 07:45 | 37.97353 | 24.06852 | 12472 ft | 383 kts | 249° |
| 2026-05-05 07:45 | 37.96234 | 24.03773 | 13099 ft | 386 kts | 250° |
| 2026-05-05 07:45 | 37.95185 | 24.00682 | 13731 ft | 388 kts | 251° |
| 2026-05-05 07:46 | 37.94171 | 23.97498 | 14381 ft | 391 kts | 252° |
| 2026-05-05 07:46 | 37.93173 | 23.94285 | 15021 ft | 394 kts | 252° |
| 2026-05-05 07:46 | 37.92162 | 23.91033 | 15648 ft | 397 kts | 251° |
| 2026-05-05 07:46 | 37.91144 | 23.87761 | 16260 ft | 400 kts | 251° |
| 2026-05-05 07:47 | 37.90130 | 23.84451 | 16859 ft | 403 kts | 253° |
| 2026-05-05 07:47 | 37.89419 | 23.81062 | 17429 ft | 403 kts | 262° |
| 2026-05-05 07:47 | 37.89123 | 23.77539 | 17991 ft | 403 kts | 270° |
| 2026-05-05 07:47 | 37.89133 | 23.73977 | 18538 ft | 405 kts | 274° |
| 2026-05-05 07:48 | 37.89287 | 23.70402 | 19078 ft | 407 kts | 276° |
| 2026-05-05 07:48 | 37.89494 | 23.66810 | 19604 ft | 411 kts | 276° |
| 2026-05-05 07:48 | 37.89691 | 23.63188 | 20118 ft | 413 kts | 276° |
| 2026-05-05 07:48 | 37.89879 | 23.59542 | 20619 ft | 416 kts | 276° |
| 2026-05-05 07:49 | 37.90060 | 23.55902 | 21102 ft | 419 kts | 276° |
| 2026-05-05 07:49 | 37.90240 | 23.52199 | 21581 ft | 422 kts | 276° |
| 2026-05-05 07:49 | 37.90419 | 23.48468 | 22055 ft | 424 kts | 276° |
| 2026-05-05 07:49 | 37.90596 | 23.44735 | 22502 ft | 426 kts | 276° |
| 2026-05-05 07:50 | 37.90773 | 23.40980 | 22940 ft | 428 kts | 276° |
| 2026-05-05 07:50 | 37.90950 | 23.37206 | 23374 ft | 430 kts | 276° |
| 2026-05-05 07:50 | 37.91161 | 23.33405 | 23796 ft | 432 kts | 277° |
| 2026-05-05 07:50 | 37.91377 | 23.29646 | 24211 ft | 434 kts | 276° |
| 2026-05-05 07:51 | 37.91570 | 23.25832 | 24623 ft | 435 kts | 276° |
| 2026-05-05 07:51 | 37.91751 | 23.21995 | 25032 ft | 437 kts | 276° |
| 2026-05-05 07:51 | 37.91925 | 23.18142 | 25433 ft | 438 kts | 276° |
| 2026-05-05 07:51 | 37.92097 | 23.14283 | 25836 ft | 439 kts | 276° |
| 2026-05-05 07:52 | 37.92268 | 23.10408 | 26194 ft | 441 kts | 276° |
| 2026-05-05 07:52 | 37.92437 | 23.06525 | 26568 ft | 441 kts | 276° |
| 2026-05-05 07:52 | 37.92606 | 23.02636 | 26928 ft | 442 kts | 276° |
| 2026-05-05 07:52 | 37.92811 | 22.98787 | 27244 ft | 442 kts | 280° |
| 2026-05-05 07:53 | 37.93450 | 22.94988 | 27589 ft | 439 kts | 290° |
| 2026-05-05 07:53 | 37.94611 | 22.91443 | 27929 ft | 436 kts | 300° |
| 2026-05-05 07:53 | 37.96103 | 22.88118 | 28373 ft | 432 kts | 303° |
| 2026-05-05 07:53 | 37.97742 | 22.84934 | 28887 ft | 427 kts | 306° |
| 2026-05-05 07:54 | 37.99458 | 22.81868 | 29329 ft | 425 kts | 307° |
| 2026-05-05 07:54 | 38.01135 | 22.78846 | 29716 ft | 424 kts | 307° |
| 2026-05-05 07:54 | 38.02829 | 22.75766 | 29997 ft | 426 kts | 307° |
| 2026-05-05 07:54 | 38.04523 | 22.72681 | 30406 ft | 423 kts | 307° |
| 2026-05-05 07:55 | 38.06196 | 22.69627 | 30897 ft | 419 kts | 307° |
| 2026-05-05 07:55 | 38.07855 | 22.66599 | 31326 ft | 417 kts | 307° |
| 2026-05-05 07:55 | 38.09505 | 22.63586 | 31750 ft | 414 kts | 307° |
| 2026-05-05 07:55 | 38.11145 | 22.60583 | 32117 ft | 412 kts | 307° |
| 2026-05-05 07:56 | 38.12780 | 22.57589 | 32471 ft | 411 kts | 307° |
| 2026-05-05 07:56 | 38.14426 | 22.54623 | 32841 ft | 409 kts | 307° |
| 2026-05-05 07:56 | 38.16048 | 22.51685 | 33254 ft | 406 kts | 307° |
| 2026-05-05 07:56 | 38.17640 | 22.48777 | 33558 ft | 405 kts | 307° |
| 2026-05-05 07:57 | 38.19244 | 22.45833 | 33868 ft | 404 kts | 307° |
| 2026-05-05 07:57 | 38.20841 | 22.42893 | 34121 ft | 405 kts | 307° |
| 2026-05-05 07:57 | 38.24050 | 22.36973 | 34141 ft | 405 kts | 307° |
| 2026-05-05 07:58 | 38.27243 | 22.31073 | 34145 ft | 403 kts | 307° |
| 2026-05-05 07:58 | 38.30407 | 22.25226 | 34147 ft | 403 kts | 307° |
| 2026-05-05 07:59 | 38.33586 | 22.19344 | 34149 ft | 403 kts | 307° |
| 2026-05-05 07:59 | 38.36246 | 22.14480 | 34151 ft | 403 kts | 307° |
| 2026-05-05 08:00 | 38.39436 | 22.08586 | 34153 ft | 403 kts | 307° |
| 2026-05-05 08:00 | 38.42583 | 22.02730 | 34154 ft | 403 kts | 307° |
| 2026-05-05 08:01 | 38.45742 | 21.96834 | 34159 ft | 403 kts | 307° |
| 2026-05-05 08:01 | 38.48901 | 21.90930 | 34160 ft | 402 kts | 307° |
| 2026-05-05 08:02 | 38.52057 | 21.85033 | 34161 ft | 402 kts | 307° |
| 2026-05-05 08:02 | 38.55231 | 21.79139 | 34161 ft | 402 kts | 307° |
| 2026-05-05 08:03 | 38.58369 | 21.73261 | 34162 ft | 402 kts | 307° |
| 2026-05-05 08:03 | 38.61515 | 21.67328 | 34162 ft | 402 kts | 306° |
| 2026-05-05 08:04 | 38.64646 | 21.61405 | 34161 ft | 402 kts | 306° |
| 2026-05-05 08:04 | 38.67784 | 21.55464 | 34160 ft | 402 kts | 306° |
| 2026-05-05 08:05 | 38.70916 | 21.49532 | 34160 ft | 402 kts | 306° |
| 2026-05-05 08:05 | 38.74047 | 21.43583 | 34160 ft | 402 kts | 306° |
| 2026-05-05 08:06 | 38.77147 | 21.37673 | 34164 ft | 402 kts | 306° |
| 2026-05-05 08:06 | 38.80270 | 21.31709 | 34166 ft | 402 kts | 306° |
| 2026-05-05 08:07 | 38.83428 | 21.25775 | 34169 ft | 402 kts | 307° |
| 2026-05-05 08:07 | 38.86532 | 21.19852 | 34171 ft | 402 kts | 306° |
| 2026-05-05 08:08 | 38.89647 | 21.13866 | 34171 ft | 402 kts | 306° |
| 2026-05-05 08:08 | 38.92754 | 21.07881 | 34171 ft | 402 kts | 306° |
| 2026-05-05 08:09 | 38.95843 | 21.01926 | 34171 ft | 402 kts | 306° |
| 2026-05-05 08:09 | 38.98946 | 20.95939 | 34171 ft | 403 kts | 306° |
| 2026-05-05 08:10 | 39.02053 | 20.89942 | 34171 ft | 403 kts | 306° |
| 2026-05-05 08:10 | 39.05157 | 20.83927 | 34171 ft | 403 kts | 306° |
| 2026-05-05 08:11 | 39.08260 | 20.77907 | 34167 ft | 403 kts | 306° |
| 2026-05-05 08:11 | 39.11389 | 20.71937 | 34166 ft | 403 kts | 306° |
| 2026-05-05 08:12 | 39.14473 | 20.65956 | 34165 ft | 403 kts | 306° |
| 2026-05-05 08:12 | 39.17563 | 20.59922 | 34165 ft | 404 kts | 306° |
| 2026-05-05 08:13 | 39.20650 | 20.53880 | 34163 ft | 403 kts | 306° |
| 2026-05-05 08:13 | 39.23737 | 20.47830 | 34162 ft | 404 kts | 306° |
| 2026-05-05 08:14 | 39.26812 | 20.41802 | 34159 ft | 404 kts | 306° |
| 2026-05-05 08:14 | 39.29943 | 20.35760 | 34157 ft | 405 kts | 306° |
| 2026-05-05 08:15 | 39.33049 | 20.29682 | 34155 ft | 405 kts | 305° |
| 2026-05-05 08:15 | 39.36142 | 20.23596 | 34153 ft | 405 kts | 305° |
| 2026-05-05 08:16 | 39.39222 | 20.17522 | 34150 ft | 406 kts | 305° |
| 2026-05-05 08:16 | 39.42320 | 20.11409 | 34147 ft | 406 kts | 305° |
| 2026-05-05 08:17 | 39.45458 | 20.05318 | 34145 ft | 406 kts | 307° |
| 2026-05-05 08:17 | 39.48863 | 19.99463 | 34143 ft | 407 kts | 309° |
| 2026-05-05 08:18 | 39.52278 | 19.93627 | 34142 ft | 406 kts | 308° |
| 2026-05-05 08:18 | 39.55647 | 19.87809 | 34142 ft | 406 kts | 308° |
| 2026-05-05 08:19 | 39.59027 | 19.81938 | 34142 ft | 406 kts | 308° |
| 2026-05-05 08:19 | 39.62405 | 19.76054 | 34142 ft | 406 kts | 308° |
| 2026-05-05 08:20 | 39.65792 | 19.70168 | 34143 ft | 406 kts | 308° |
| 2026-05-05 08:20 | 39.69198 | 19.64299 | 34143 ft | 406 kts | 308° |
| 2026-05-05 08:21 | 39.72557 | 19.58457 | 34142 ft | 406 kts | 308° |
| 2026-05-05 08:21 | 39.75931 | 19.52563 | 34142 ft | 406 kts | 308° |
| 2026-05-05 08:22 | 39.79293 | 19.46674 | 34142 ft | 405 kts | 308° |
| 2026-05-05 08:22 | 39.82650 | 19.40780 | 34142 ft | 405 kts | 308° |
| 2026-05-05 08:23 | 39.86000 | 19.34886 | 34141 ft | 404 kts | 308° |
| 2026-05-05 08:23 | 39.89368 | 19.29012 | 34141 ft | 404 kts | 308° |
| 2026-05-05 08:24 | 39.92679 | 19.23167 | 34141 ft | 404 kts | 308° |
| 2026-05-05 08:24 | 39.96009 | 19.17258 | 34141 ft | 403 kts | 308° |
| 2026-05-05 08:25 | 39.99321 | 19.11365 | 34140 ft | 402 kts | 308° |
| 2026-05-05 08:25 | 40.02630 | 19.05472 | 34141 ft | 404 kts | 307° |
| 2026-05-05 08:26 | 40.05960 | 18.99537 | 34142 ft | 405 kts | 307° |
| 2026-05-05 08:26 | 40.09269 | 18.93662 | 34142 ft | 403 kts | 308° |
| 2026-05-05 08:27 | 40.12589 | 18.87747 | 34141 ft | 403 kts | 307° |
| 2026-05-05 08:27 | 40.15896 | 18.81837 | 34142 ft | 402 kts | 307° |
| 2026-05-05 08:28 | 40.19197 | 18.75928 | 34141 ft | 402 kts | 307° |
| 2026-05-05 08:28 | 40.22488 | 18.70025 | 34141 ft | 401 kts | 307° |
| 2026-05-05 08:29 | 40.25771 | 18.64126 | 34135 ft | 400 kts | 308° |
| 2026-05-05 08:30 | 40.30707 | 18.55366 | 34134 ft | 400 kts | 308° |
| 2026-05-05 08:30 | 40.33995 | 18.49471 | 34135 ft | 400 kts | 307° |
| 2026-05-05 08:31 | 40.37275 | 18.43569 | 34134 ft | 399 kts | 307° |
| 2026-05-05 08:31 | 40.40539 | 18.37678 | 34134 ft | 399 kts | 307° |
| 2026-05-05 08:32 | 40.43803 | 18.31823 | 34132 ft | 399 kts | 308° |
| 2026-05-05 08:32 | 40.47071 | 18.25926 | 34130 ft | 399 kts | 307° |
| 2026-05-05 08:33 | 40.50321 | 18.20009 | 34126 ft | 399 kts | 307° |
| 2026-05-05 08:33 | 40.53563 | 18.14089 | 34122 ft | 399 kts | 307° |
| 2026-05-05 08:34 | 40.56781 | 18.08205 | 34117 ft | 399 kts | 307° |
| 2026-05-05 08:34 | 40.60026 | 18.02272 | 34114 ft | 399 kts | 307° |
| 2026-05-05 08:35 | 40.63522 | 17.96603 | 34112 ft | 399 kts | 313° |
| 2026-05-05 08:35 | 40.67272 | 17.91213 | 34112 ft | 399 kts | 313° |
| 2026-05-05 08:36 | 40.71011 | 17.85790 | 34112 ft | 400 kts | 312° |
| 2026-05-05 08:36 | 40.74718 | 17.80369 | 34112 ft | 400 kts | 312° |
| 2026-05-05 08:37 | 40.78444 | 17.74898 | 34112 ft | 401 kts | 312° |
| 2026-05-05 08:37 | 40.82167 | 17.69419 | 34111 ft | 401 kts | 312° |
| 2026-05-05 08:38 | 40.85901 | 17.63959 | 34110 ft | 402 kts | 312° |
| 2026-05-05 08:38 | 40.89660 | 17.58464 | 34109 ft | 403 kts | 312° |
| 2026-05-05 08:39 | 40.93406 | 17.52949 | 34107 ft | 403 kts | 312° |
| 2026-05-05 08:39 | 40.97155 | 17.47418 | 34106 ft | 403 kts | 312° |
| 2026-05-05 08:40 | 41.00917 | 17.41898 | 34104 ft | 404 kts | 311° |
| 2026-05-05 08:40 | 41.04638 | 17.36371 | 34103 ft | 404 kts | 311° |
| 2026-05-05 08:41 | 41.08376 | 17.30795 | 34101 ft | 404 kts | 311° |
| 2026-05-05 08:41 | 41.12108 | 17.25215 | 34100 ft | 405 kts | 311° |
| 2026-05-05 08:42 | 41.15855 | 17.19611 | 34092 ft | 405 kts | 311° |
| 2026-05-05 08:42 | 41.19575 | 17.14049 | 34088 ft | 405 kts | 311° |
| 2026-05-05 08:43 | 41.23362 | 17.08487 | 34087 ft | 405 kts | 311° |
| 2026-05-05 08:43 | 41.27140 | 17.02913 | 34086 ft | 405 kts | 311° |
| 2026-05-05 08:44 | 41.30910 | 16.97332 | 34086 ft | 405 kts | 311° |
| 2026-05-05 08:44 | 41.34675 | 16.91744 | 34086 ft | 405 kts | 311° |
| 2026-05-05 08:45 | 41.38443 | 16.86139 | 34088 ft | 405 kts | 311° |
| 2026-05-05 08:45 | 41.42194 | 16.80573 | 34088 ft | 405 kts | 311° |
| 2026-05-05 08:46 | 41.45987 | 16.75001 | 34087 ft | 406 kts | 311° |
| 2026-05-05 08:46 | 41.49761 | 16.69411 | 34085 ft | 406 kts | 311° |
| 2026-05-05 08:47 | 41.53534 | 16.63794 | 34085 ft | 406 kts | 311° |
| 2026-05-05 08:47 | 41.57276 | 16.58207 | 34085 ft | 406 kts | 311° |
| 2026-05-05 08:48 | 41.61031 | 16.52586 | 34086 ft | 406 kts | 311° |
| 2026-05-05 08:48 | 41.64788 | 16.46951 | 34086 ft | 406 kts | 311° |
| 2026-05-05 08:49 | 41.67912 | 16.42256 | 34086 ft | 405 kts | 310° |
| 2026-05-05 08:49 | 41.71654 | 16.36623 | 34086 ft | 405 kts | 310° |
| 2026-05-05 08:50 | 41.75398 | 16.30976 | 34086 ft | 405 kts | 310° |
| 2026-05-05 08:50 | 41.79136 | 16.25325 | 34081 ft | 405 kts | 310° |
| 2026-05-05 08:51 | 41.82869 | 16.19673 | 34081 ft | 405 kts | 310° |
| 2026-05-05 08:51 | 41.86603 | 16.14009 | 34081 ft | 405 kts | 310° |
| 2026-05-05 08:52 | 41.90333 | 16.08339 | 34080 ft | 405 kts | 310° |
| 2026-05-05 08:52 | 41.94057 | 16.02668 | 34080 ft | 405 kts | 310° |
| 2026-05-05 08:53 | 41.97784 | 15.96980 | 34080 ft | 405 kts | 310° |
| 2026-05-05 08:53 | 42.01502 | 15.91296 | 34080 ft | 405 kts | 310° |
| 2026-05-05 08:54 | 42.05222 | 15.85596 | 34079 ft | 405 kts | 310° |
| 2026-05-05 08:54 | 42.08919 | 15.79928 | 34079 ft | 405 kts | 310° |
| 2026-05-05 08:55 | 42.12658 | 15.74234 | 34078 ft | 406 kts | 310° |
| 2026-05-05 08:55 | 42.16383 | 15.68492 | 34078 ft | 406 kts | 310° |
| 2026-05-05 08:56 | 42.20094 | 15.62743 | 34078 ft | 406 kts | 310° |
| 2026-05-05 08:56 | 42.23780 | 15.57023 | 34077 ft | 407 kts | 310° |
| 2026-05-05 08:57 | 42.27500 | 15.51244 | 34076 ft | 407 kts | 310° |
| 2026-05-05 08:57 | 42.31219 | 15.45464 | 34083 ft | 408 kts | 310° |
| 2026-05-05 08:58 | 42.35017 | 15.39749 | 34082 ft | 408 kts | 310° |
| 2026-05-05 08:58 | 42.38793 | 15.34043 | 34081 ft | 409 kts | 310° |
| 2026-05-05 08:59 | 42.42580 | 15.28294 | 34079 ft | 409 kts | 310° |
| 2026-05-05 08:59 | 42.46369 | 15.22526 | 34069 ft | 410 kts | 310° |
| 2026-05-05 09:00 | 42.50164 | 15.16733 | 34065 ft | 410 kts | 309° |
| 2026-05-05 09:00 | 42.53961 | 15.10955 | 34064 ft | 411 kts | 310° |
| 2026-05-05 09:01 | 42.57789 | 15.05187 | 34063 ft | 412 kts | 310° |
| 2026-05-05 09:01 | 42.61608 | 14.99382 | 34061 ft | 412 kts | 309° |
| 2026-05-05 09:02 | 42.65414 | 14.93567 | 34060 ft | 412 kts | 309° |
| 2026-05-05 09:02 | 42.69195 | 14.87772 | 34060 ft | 412 kts | 309° |
| 2026-05-05 09:03 | 42.72995 | 14.81933 | 34059 ft | 412 kts | 309° |
| 2026-05-05 09:03 | 42.76796 | 14.76079 | 34059 ft | 412 kts | 309° |
| 2026-05-05 09:04 | 42.80593 | 14.70219 | 34059 ft | 412 kts | 309° |
| 2026-05-05 09:04 | 42.84386 | 14.64352 | 34059 ft | 412 kts | 309° |
| 2026-05-05 09:05 | 42.88160 | 14.58504 | 34058 ft | 412 kts | 309° |
| 2026-05-05 09:05 | 42.91949 | 14.52619 | 34058 ft | 413 kts | 309° |
| 2026-05-05 09:06 | 42.95738 | 14.46724 | 34058 ft | 413 kts | 309° |
| 2026-05-05 09:06 | 42.99521 | 14.40825 | 34058 ft | 413 kts | 309° |
| 2026-05-05 09:07 | 43.03278 | 14.34955 | 34059 ft | 413 kts | 308° |
| 2026-05-05 09:07 | 43.07060 | 14.29033 | 34058 ft | 413 kts | 308° |
| 2026-05-05 09:08 | 43.10846 | 14.23093 | 34058 ft | 413 kts | 308° |
| 2026-05-05 09:08 | 43.14603 | 14.17186 | 34059 ft | 413 kts | 308° |
| 2026-05-05 09:09 | 43.18374 | 14.11246 | 34067 ft | 413 kts | 308° |
| 2026-05-05 09:09 | 43.22149 | 14.05286 | 34068 ft | 413 kts | 308° |
| 2026-05-05 09:10 | 43.25915 | 13.99330 | 34067 ft | 413 kts | 308° |
| 2026-05-05 09:10 | 43.27804 | 13.96338 | 33797 ft | 415 kts | 308° |
| 2026-05-05 09:10 | 43.29684 | 13.93357 | 33370 ft | 410 kts | 308° |
| 2026-05-05 09:10 | 43.31540 | 13.90409 | 32892 ft | 406 kts | 307° |
| 2026-05-05 09:11 | 43.33378 | 13.87488 | 32427 ft | 402 kts | 307° |
| 2026-05-05 09:11 | 43.35195 | 13.84597 | 31973 ft | 398 kts | 307° |
| 2026-05-05 09:11 | 43.36998 | 13.81726 | 31525 ft | 395 kts | 307° |
| 2026-05-05 09:11 | 43.38795 | 13.78898 | 31084 ft | 391 kts | 307° |
| 2026-05-05 09:12 | 43.40576 | 13.76082 | 30649 ft | 388 kts | 307° |
| 2026-05-05 09:12 | 43.42329 | 13.73289 | 30221 ft | 384 kts | 307° |
| 2026-05-05 09:12 | 43.44063 | 13.70513 | 29799 ft | 381 kts | 307° |
| 2026-05-05 09:12 | 43.45764 | 13.67785 | 29389 ft | 378 kts | 306° |
| 2026-05-05 09:13 | 43.47470 | 13.65043 | 28973 ft | 375 kts | 306° |
| 2026-05-05 09:13 | 43.49159 | 13.62325 | 28557 ft | 373 kts | 306° |
| 2026-05-05 09:13 | 43.50843 | 13.59611 | 28142 ft | 372 kts | 306° |
| 2026-05-05 09:13 | 43.52534 | 13.56887 | 27724 ft | 376 kts | 307° |
| 2026-05-05 09:14 | 43.54245 | 13.54128 | 27297 ft | 381 kts | 307° |
| 2026-05-05 09:14 | 43.55971 | 13.51345 | 26862 ft | 380 kts | 307° |
| 2026-05-05 09:14 | 43.57515 | 13.48465 | 26433 ft | 374 kts | 298° |
| 2026-05-05 09:14 | 43.58669 | 13.45289 | 26007 ft | 368 kts | 289° |
| 2026-05-05 09:15 | 43.59509 | 13.41968 | 25561 ft | 365 kts | 285° |
| 2026-05-05 09:15 | 43.60214 | 13.38616 | 25123 ft | 363 kts | 283° |
| 2026-05-05 09:15 | 43.60851 | 13.35262 | 24691 ft | 361 kts | 282° |
| 2026-05-05 09:15 | 43.61477 | 13.31918 | 24262 ft | 359 kts | 282° |
| 2026-05-05 09:16 | 43.62099 | 13.28590 | 23834 ft | 357 kts | 282° |
| 2026-05-05 09:16 | 43.62719 | 13.25270 | 23409 ft | 355 kts | 282° |
| 2026-05-05 09:16 | 43.63335 | 13.21972 | 22987 ft | 353 kts | 282° |
| 2026-05-05 09:16 | 43.63946 | 13.18692 | 22568 ft | 352 kts | 282° |
| 2026-05-05 09:17 | 43.64555 | 13.15421 | 22148 ft | 350 kts | 282° |
| 2026-05-05 09:17 | 43.65159 | 13.12170 | 21731 ft | 348 kts | 282° |
| 2026-05-05 09:17 | 43.65752 | 13.08979 | 21320 ft | 347 kts | 282° |
| 2026-05-05 09:17 | 43.66348 | 13.05763 | 20908 ft | 345 kts | 282° |
| 2026-05-05 09:18 | 43.66943 | 13.02552 | 20496 ft | 343 kts | 282° |
| 2026-05-05 09:18 | 43.67551 | 12.99364 | 20087 ft | 342 kts | 283° |
| 2026-05-05 09:18 | 43.68164 | 12.96191 | 19679 ft | 341 kts | 282° |
| 2026-05-05 09:18 | 43.68765 | 12.93033 | 19275 ft | 339 kts | 282° |
| 2026-05-05 09:19 | 43.69359 | 12.89885 | 18872 ft | 337 kts | 282° |
| 2026-05-05 09:19 | 43.69944 | 12.86753 | 18472 ft | 336 kts | 282° |
| 2026-05-05 09:19 | 43.70526 | 12.83629 | 18074 ft | 335 kts | 282° |
| 2026-05-05 09:19 | 43.71127 | 12.80523 | 17677 ft | 333 kts | 282° |
| 2026-05-05 09:20 | 43.71704 | 12.77473 | 17289 ft | 332 kts | 282° |
| 2026-05-05 09:20 | 43.72278 | 12.74386 | 16896 ft | 331 kts | 282° |
| 2026-05-05 09:20 | 43.72844 | 12.71309 | 16504 ft | 329 kts | 282° |
| 2026-05-05 09:20 | 43.73403 | 12.68239 | 16113 ft | 328 kts | 282° |
| 2026-05-05 09:21 | 43.73960 | 12.65175 | 15723 ft | 327 kts | 282° |
| 2026-05-05 09:21 | 43.74513 | 12.62118 | 15332 ft | 326 kts | 282° |
| 2026-05-05 09:21 | 43.75063 | 12.59076 | 14942 ft | 325 kts | 282° |
| 2026-05-05 09:21 | 43.75604 | 12.56079 | 14560 ft | 325 kts | 282° |
| 2026-05-05 09:22 | 43.76149 | 12.53050 | 14173 ft | 324 kts | 282° |
| 2026-05-05 09:22 | 43.76692 | 12.50036 | 13789 ft | 323 kts | 282° |
| 2026-05-05 09:22 | 43.77236 | 12.47019 | 13404 ft | 322 kts | 282° |
| 2026-05-05 09:22 | 43.77779 | 12.44010 | 13020 ft | 321 kts | 282° |
| 2026-05-05 09:23 | 43.78494 | 12.41082 | 12634 ft | 323 kts | 293° |
| 2026-05-05 09:23 | 43.79688 | 12.38445 | 12253 ft | 325 kts | 306° |
| 2026-05-05 09:23 | 43.81190 | 12.36114 | 11864 ft | 325 kts | 313° |
| 2026-05-05 09:23 | 43.82856 | 12.33981 | 11479 ft | 325 kts | 316° |
| 2026-05-05 09:24 | 43.84537 | 12.31879 | 11097 ft | 325 kts | 315° |
| 2026-05-05 09:24 | 43.86182 | 12.29740 | 10718 ft | 323 kts | 314° |
| 2026-05-05 09:24 | 43.87799 | 12.27588 | 10391 ft | 321 kts | 314° |
| 2026-05-05 09:24 | 43.89377 | 12.25473 | 10301 ft | 310 kts | 313° |
| 2026-05-05 09:25 | 43.90883 | 12.23450 | 10225 ft | 300 kts | 313° |
| 2026-05-05 09:25 | 43.92362 | 12.21464 | 10150 ft | 290 kts | 313° |
| 2026-05-05 09:25 | 43.93917 | 12.19745 | 10061 ft | 284 kts | 329° |
| 2026-05-05 09:25 | 43.95809 | 12.18980 | 9981 ft | 285 kts | 353° |
| 2026-05-05 09:26 | 43.97783 | 12.19298 | 9582 ft | 291 kts | 17° |
| 2026-05-05 09:26 | 43.99530 | 12.20656 | 9031 ft | 291 kts | 41° |
| 2026-05-05 09:26 | 44.00729 | 12.22839 | 8625 ft | 280 kts | 66° |
| 2026-05-05 09:26 | 44.01151 | 12.25376 | 8369 ft | 261 kts | 92° |
| 2026-05-05 09:27 | 44.00814 | 12.27795 | 8135 ft | 255 kts | 112° |
| 2026-05-05 09:27 | 44.00110 | 12.30083 | 7903 ft | 259 kts | 113° |
| 2026-05-05 09:27 | 43.99843 | 12.32560 | 7641 ft | 264 kts | 88° |
| 2026-05-05 09:27 | 44.00389 | 12.34990 | 7385 ft | 266 kts | 61° |
| 2026-05-05 09:28 | 44.01632 | 12.36865 | 7133 ft | 265 kts | 35° |
| 2026-05-05 09:28 | 44.03308 | 12.37789 | 7021 ft | 257 kts | 7° |
| 2026-05-05 09:28 | 44.05052 | 12.37599 | 7016 ft | 249 kts | 340° |
| 2026-05-05 09:28 | 44.06492 | 12.36403 | 7028 ft | 243 kts | 314° |
| 2026-05-05 09:29 | 44.07547 | 12.34550 | 7047 ft | 242 kts | 297° |
| 2026-05-05 09:29 | 44.08419 | 12.32535 | 7053 ft | 244 kts | 298° |
| 2026-05-05 09:29 | 44.09280 | 12.30545 | 7040 ft | 243 kts | 297° |
| 2026-05-05 09:29 | 44.10145 | 12.28528 | 7032 ft | 243 kts | 297° |
| 2026-05-05 09:30 | 44.11008 | 12.26505 | 6999 ft | 242 kts | 297° |
| 2026-05-05 09:30 | 44.11878 | 12.24461 | 6750 ft | 247 kts | 297° |
| 2026-05-05 09:30 | 44.12747 | 12.22417 | 6558 ft | 244 kts | 297° |
| 2026-05-05 09:30 | 44.13603 | 12.20398 | 6385 ft | 241 kts | 296° |
| 2026-05-05 09:31 | 44.14450 | 12.18401 | 6215 ft | 238 kts | 296° |
| 2026-05-05 09:31 | 44.15292 | 12.16413 | 6050 ft | 238 kts | 296° |
| 2026-05-05 09:31 | 44.16131 | 12.14430 | 5886 ft | 237 kts | 296° |
| 2026-05-05 09:31 | 44.16970 | 12.12450 | 5722 ft | 237 kts | 296° |
| 2026-05-05 09:32 | 44.17526 | 12.11139 | 5613 ft | 237 kts | 297° |
| 2026-05-05 09:32 | 44.18363 | 12.09165 | 5450 ft | 236 kts | 297° |
| 2026-05-05 09:32 | 44.19323 | 12.07301 | 5280 ft | 240 kts | 311° |
| 2026-05-05 09:32 | 44.20649 | 12.05858 | 5119 ft | 243 kts | 323° |
| 2026-05-05 09:33 | 44.22113 | 12.04729 | 4950 ft | 244 kts | 330° |
| 2026-05-05 09:33 | 44.23655 | 12.03739 | 4779 ft | 243 kts | 333° |
| 2026-05-05 09:33 | 44.25192 | 12.02758 | 4610 ft | 243 kts | 332° |
| 2026-05-05 09:33 | 44.26714 | 12.01751 | 4442 ft | 242 kts | 331° |
| 2026-05-05 09:34 | 44.28228 | 12.00729 | 4275 ft | 241 kts | 331° |
| 2026-05-05 09:34 | 44.29731 | 11.99706 | 4109 ft | 240 kts | 331° |
| 2026-05-05 09:34 | 44.31233 | 11.98681 | 3942 ft | 240 kts | 331° |
| 2026-05-05 09:34 | 44.32586 | 11.97368 | 3756 ft | 235 kts | 306° |
| 2026-05-05 09:35 | 44.33139 | 11.95305 | 3591 ft | 229 kts | 269° |
| 2026-05-05 09:35 | 44.31638 | 11.91817 | 3194 ft | 205 kts | 221° |
| 2026-05-05 09:35 | 44.30641 | 11.90514 | 3062 ft | 191 kts | 224° |
| 2026-05-05 09:36 | 44.29722 | 11.89234 | 2911 ft | 182 kts | 224° |
| 2026-05-05 09:36 | 44.28738 | 11.88206 | 2738 ft | 173 kts | 198° |
| 2026-05-05 09:36 | 44.27582 | 11.88401 | 2612 ft | 173 kts | 151° |
| 2026-05-05 09:36 | 44.26741 | 11.89574 | 2508 ft | 170 kts | 129° |
| 2026-05-05 09:37 | 44.26142 | 11.90949 | 2388 ft | 162 kts | 121° |
| 2026-05-05 09:37 | 44.25677 | 11.92367 | 2255 ft | 160 kts | 115° |
| 2026-05-05 09:37 | 44.25194 | 11.93748 | 2127 ft | 155 kts | 122° |
| 2026-05-05 09:37 | 44.24643 | 11.95003 | 1961 ft | 151 kts | 127° |
| 2026-05-05 09:38 | 44.23999 | 11.96175 | 1673 ft | 149 kts | 130° |
| 2026-05-05 09:38 | 44.23380 | 11.97290 | 1439 ft | 146 kts | 128° |
| 2026-05-05 09:38 | 44.22804 | 11.98460 | 1205 ft | 146 kts | 124° |
| 2026-05-05 09:38 | 44.22272 | 11.99665 | 991 ft | 145 kts | 121° |
| 2026-05-05 09:39 | 44.21779 | 12.00891 | 830 ft | 145 kts | 119° |
| 2026-05-05 09:39 | 44.21294 | 12.02129 | 662 ft | 146 kts | 118° |
| 2026-05-05 09:39 | 44.20833 | 12.03384 | 488 ft | 144 kts | 117° |
| 2026-05-05 09:39 | 44.20386 | 12.04601 | 296 ft | 142 kts | 117° |
| 2026-05-05 09:40 | 44.19941 | 12.05809 | 135 ft | 139 kts | 117° |
| 2026-05-05 09:40 | 44.19545 | 12.06902 | 106 ft | 98 kts | 117° |
| 2026-05-05 09:40 | 44.19369 | 12.07382 | 105 ft | 13 kts | 117° |
| 2026-05-05 09:40 | 44.19376 | 12.07427 | 105 ft | 5 kts | 35° |
| 2026-05-05 09:41 | 44.19405 | 12.07444 | 105 ft | 4 kts | 18° |
| 2026-05-05 09:41 | 44.19434 | 12.07449 | 105 ft | 4 kts | 351° |
| 2026-05-05 09:41 | 44.19462 | 12.07439 | 105 ft | 4 kts | 339° |
| 2026-05-05 09:41 | 44.19487 | 12.07425 | 105 ft | 4 kts | 335° |
| 2026-05-05 09:42 | 44.19510 | 12.07409 | 105 ft | 4 kts | 335° |
| 2026-05-05 09:42 | 44.19533 | 12.07395 | 105 ft | 3 kts | 335° |
| 2026-05-05 09:42 | 44.19554 | 12.07381 | 105 ft | 3 kts | 335° |
| 2026-05-05 09:42 | 44.19577 | 12.07365 | 105 ft | 4 kts | 335° |
| 2026-05-05 09:43 | 44.19604 | 12.07341 | 105 ft | 5 kts | 316° |
| 2026-05-05 09:43 | 44.19625 | 12.07297 | 105 ft | 6 kts | 298° |
| 2026-05-05 09:43 | 44.19646 | 12.07242 | 105 ft | 7 kts | 298° |
| 2026-05-05 09:43 | 44.19670 | 12.07179 | 105 ft | 8 kts | 297° |
| 2026-05-05 09:44 | 44.19696 | 12.07108 | 105 ft | 9 kts | 297° |
| 2026-05-05 09:44 | 44.19747 | 12.07085 | 105 ft | 9 kts | 22° |
| 2026-05-05 09:44 | 44.19792 | 12.07112 | 105 ft | 0 kts | 22° |